sensor_id;sensor_type;location;lat;lon;timestamp;temperature;humidity
2577;DHT22;1298;51.252;6.802;2023-03-14T00:00:25;11.70;99.90
2577;DHT22;1298;51.252;6.802;2023-03-14T00:03:10;11.80;99.90
2577;DHT22;1298;51.252;6.802;2023-03-14T00:05:55;11.90;99.90
2577;DHT22;1298;51.252;6.802;2023-03-14T00:08:40;11.90;99.90
2577;DHT22;1298;51.252;6.802;2023-03-14T00:11:27;11.90;99.90
2577;DHT22;1298;51.252;6.802;2023-03-14T00:14:13;11.90;99.90
2577;DHT22;1298;51.252;6.802;2023-03-14T00:16:59;11.90;99.90
2577;DHT22;1298;51.252;6.802;2023-03-14T00:19:44;11.90;99.90
2577;DHT22;1298;51.252;6.802;2023-03-14T00:22:29;11.90;99.90
2577;DHT22;1298;51.252;6.802;2023-03-14T00:25:15;11.90;99.90
2577;DHT22;1298;51.252;6.802;2023-03-14T00:28:03;11.90;99.90
2577;DHT22;1298;51.252;6.802;2023-03-14T00:30:49;12.00;99.90
2577;DHT22;1298;51.252;6.802;2023-03-14T00:33:34;12.00;99.90
2577;DHT22;1298;51.252;6.802;2023-03-14T00:36:20;12.00;99.90
2577;DHT22;1298;51.252;6.802;2023-03-14T00:39:06;12.00;99.90
2577;DHT22;1298;51.252;6.802;2023-03-14T00:41:51;11.90;99.90
2577;DHT22;1298;51.252;6.802;2023-03-14T00:44:38;11.20;99.90
2577;DHT22;1298;51.252;6.802;2023-03-14T00:47:23;10.50;99.90
2577;DHT22;1298;51.252;6.802;2023-03-14T00:50:09;10.20;99.90
2577;DHT22;1298;51.252;6.802;2023-03-14T00:52:54;10.00;99.90
2577;DHT22;1298;51.252;6.802;2023-03-14T00:55:39;10.10;99.90
2577;DHT22;1298;51.252;6.802;2023-03-14T00:58:26;10.10;99.90
2577;DHT22;1298;51.252;6.802;2023-03-14T01:01:13;10.10;99.90
2577;DHT22;1298;51.252;6.802;2023-03-14T01:03:58;10.10;99.90
2577;DHT22;1298;51.252;6.802;2023-03-14T01:06:43;10.00;99.90
2577;DHT22;1298;51.252;6.802;2023-03-14T01:09:28;9.90;99.90
2577;DHT22;1298;51.252;6.802;2023-03-14T01:12:13;9.80;99.90
2577;DHT22;1298;51.252;6.802;2023-03-14T01:14:58;9.80;99.90
2577;DHT22;1298;51.252;6.802;2023-03-14T01:17:45;9.70;99.90
2577;DHT22;1298;51.252;6.802;2023-03-14T01:20:30;9.70;99.90
2577;DHT22;1298;51.252;6.802;2023-03-14T01:23:15;9.70;99.90
2577;DHT22;1298;51.252;6.802;2023-03-14T01:26:00;9.80;99.90
2577;DHT22;1298;51.252;6.802;2023-03-14T01:28:46;9.80;99.90
2577;DHT22;1298;51.252;6.802;2023-03-14T01:31:31;9.80;99.90
2577;DHT22;1298;51.252;6.802;2023-03-14T01:34:18;9.90;99.90
2577;DHT22;1298;51.252;6.802;2023-03-14T01:37:03;9.90;99.90
2577;DHT22;1298;51.252;6.802;2023-03-14T01:39:49;9.90;99.90
2577;DHT22;1298;51.252;6.802;2023-03-14T01:42:34;9.90;99.90
2577;DHT22;1298;51.252;6.802;2023-03-14T01:48:24;10.00;99.90
2577;DHT22;1298;51.252;6.802;2023-03-14T01:51:12;10.10;99.90
2577;DHT22;1298;51.252;6.802;2023-03-14T01:54:00;10.10;99.90
2577;DHT22;1298;51.252;6.802;2023-03-14T01:56:48;10.20;99.90
2577;DHT22;1298;51.252;6.802;2023-03-14T01:59:34;10.30;99.90
2577;DHT22;1298;51.252;6.802;2023-03-14T02:02:20;10.30;99.90
2577;DHT22;1298;51.252;6.802;2023-03-14T02:05:07;10.40;99.90
2577;DHT22;1298;51.252;6.802;2023-03-14T02:07:54;10.40;99.90
2577;DHT22;1298;51.252;6.802;2023-03-14T02:10:41;10.40;99.90
2577;DHT22;1298;51.252;6.802;2023-03-14T02:13:27;10.40;99.90
2577;DHT22;1298;51.252;6.802;2023-03-14T02:16:12;10.40;99.90
2577;DHT22;1298;51.252;6.802;2023-03-14T02:18:57;10.40;99.90
2577;DHT22;1298;51.252;6.802;2023-03-14T02:21:45;10.40;99.90
2577;DHT22;1298;51.252;6.802;2023-03-14T02:24:38;10.40;99.90
2577;DHT22;1298;51.252;6.802;2023-03-14T02:27:27;10.40;99.90
2577;DHT22;1298;51.252;6.802;2023-03-14T02:30:13;10.50;99.90
2577;DHT22;1298;51.252;6.802;2023-03-14T02:33:00;10.50;99.90
2577;DHT22;1298;51.252;6.802;2023-03-14T02:35:48;10.40;99.90
2577;DHT22;1298;51.252;6.802;2023-03-14T02:38:37;10.40;99.90
2577;DHT22;1298;51.252;6.802;2023-03-14T02:41:25;10.40;99.90
2577;DHT22;1298;51.252;6.802;2023-03-14T02:44:11;10.40;99.90
2577;DHT22;1298;51.252;6.802;2023-03-14T02:46:57;10.40;99.90
2577;DHT22;1298;51.252;6.802;2023-03-14T02:49:42;10.40;99.90
2577;DHT22;1298;51.252;6.802;2023-03-14T02:52:27;10.40;99.90
2577;DHT22;1298;51.252;6.802;2023-03-14T02:55:13;10.40;99.90
2577;DHT22;1298;51.252;6.802;2023-03-14T02:57:58;10.40;99.90
2577;DHT22;1298;51.252;6.802;2023-03-14T03:00:45;10.40;99.90
2577;DHT22;1298;51.252;6.802;2023-03-14T03:03:30;10.40;99.90
2577;DHT22;1298;51.252;6.802;2023-03-14T03:06:15;10.40;99.90
2577;DHT22;1298;51.252;6.802;2023-03-14T03:09:00;10.40;99.90
2577;DHT22;1298;51.252;6.802;2023-03-14T03:11:46;10.40;99.90
2577;DHT22;1298;51.252;6.802;2023-03-14T03:14:31;10.40;99.90
2577;DHT22;1298;51.252;6.802;2023-03-14T03:17:17;10.40;99.90
2577;DHT22;1298;51.252;6.802;2023-03-14T03:20:03;10.40;99.90
2577;DHT22;1298;51.252;6.802;2023-03-14T03:22:52;10.40;99.90
2577;DHT22;1298;51.252;6.802;2023-03-14T03:25:38;10.30;99.90
2577;DHT22;1298;51.252;6.802;2023-03-14T03:28:23;10.40;99.90
2577;DHT22;1298;51.252;6.802;2023-03-14T03:31:08;10.30;99.90
2577;DHT22;1298;51.252;6.802;2023-03-14T03:33:55;10.30;99.90
2577;DHT22;1298;51.252;6.802;2023-03-14T03:36:41;10.20;99.90
2577;DHT22;1298;51.252;6.802;2023-03-14T03:39:26;10.30;99.90
2577;DHT22;1298;51.252;6.802;2023-03-14T03:42:11;10.20;99.90
2577;DHT22;1298;51.252;6.802;2023-03-14T03:44:56;10.30;99.90
2577;DHT22;1298;51.252;6.802;2023-03-14T03:47:41;10.20;99.90
2577;DHT22;1298;51.252;6.802;2023-03-14T03:50:28;10.20;99.90
2577;DHT22;1298;51.252;6.802;2023-03-14T03:53:13;10.10;99.90
2577;DHT22;1298;51.252;6.802;2023-03-14T03:55:58;10.10;99.90
2577;DHT22;1298;51.252;6.802;2023-03-14T03:58:43;10.00;99.90
2577;DHT22;1298;51.252;6.802;2023-03-14T04:01:29;10.00;99.90
2577;DHT22;1298;51.252;6.802;2023-03-14T04:04:14;9.90;99.90
2577;DHT22;1298;51.252;6.802;2023-03-14T04:07:00;9.90;99.90
2577;DHT22;1298;51.252;6.802;2023-03-14T04:09:45;9.90;99.90
2577;DHT22;1298;51.252;6.802;2023-03-14T04:12:31;9.80;99.90
2577;DHT22;1298;51.252;6.802;2023-03-14T04:15:16;9.80;99.90
2577;DHT22;1298;51.252;6.802;2023-03-14T04:18:01;9.80;99.90
2577;DHT22;1298;51.252;6.802;2023-03-14T04:20:49;9.80;99.90
2577;DHT22;1298;51.252;6.802;2023-03-14T04:23:36;9.80;99.90
2577;DHT22;1298;51.252;6.802;2023-03-14T04:26:21;9.80;99.90
2577;DHT22;1298;51.252;6.802;2023-03-14T04:29:06;9.80;99.90
2577;DHT22;1298;51.252;6.802;2023-03-14T04:31:51;9.80;99.90
2577;DHT22;1298;51.252;6.802;2023-03-14T04:34:37;9.80;99.90
2577;DHT22;1298;51.252;6.802;2023-03-14T04:37:22;9.80;99.90
2577;DHT22;1298;51.252;6.802;2023-03-14T04:40:10;9.70;99.90
2577;DHT22;1298;51.252;6.802;2023-03-14T04:42:55;9.60;99.90
2577;DHT22;1298;51.252;6.802;2023-03-14T04:45:41;9.60;99.90
2577;DHT22;1298;51.252;6.802;2023-03-14T04:48:26;9.60;99.90
2577;DHT22;1298;51.252;6.802;2023-03-14T04:51:11;9.50;99.90
2577;DHT22;1298;51.252;6.802;2023-03-14T04:53:56;9.40;99.90
2577;DHT22;1298;51.252;6.802;2023-03-14T04:56:43;9.40;99.90
2577;DHT22;1298;51.252;6.802;2023-03-14T04:59:28;9.40;99.90
2577;DHT22;1298;51.252;6.802;2023-03-14T05:02:13;9.40;99.90
2577;DHT22;1298;51.252;6.802;2023-03-14T05:04:58;9.40;99.90
2577;DHT22;1298;51.252;6.802;2023-03-14T05:07:43;9.40;99.90
2577;DHT22;1298;51.252;6.802;2023-03-14T05:10:29;9.50;99.90
2577;DHT22;1298;51.252;6.802;2023-03-14T05:13:15;9.50;99.90
2577;DHT22;1298;51.252;6.802;2023-03-14T05:16:04;9.50;99.90
2577;DHT22;1298;51.252;6.802;2023-03-14T05:18:50;9.50;99.90
2577;DHT22;1298;51.252;6.802;2023-03-14T05:21:35;9.50;99.90
2577;DHT22;1298;51.252;6.802;2023-03-14T05:24:20;9.50;99.90
2577;DHT22;1298;51.252;6.802;2023-03-14T05:27:05;9.50;99.90
2577;DHT22;1298;51.252;6.802;2023-03-14T05:29:52;9.50;99.90
2577;DHT22;1298;51.252;6.802;2023-03-14T05:32:37;9.50;99.90
2577;DHT22;1298;51.252;6.802;2023-03-14T05:35:22;9.50;99.90
2577;DHT22;1298;51.252;6.802;2023-03-14T05:38:07;9.50;99.90
2577;DHT22;1298;51.252;6.802;2023-03-14T05:40:52;9.70;99.90
2577;DHT22;1298;51.252;6.802;2023-03-14T05:43:37;9.70;99.90
2577;DHT22;1298;51.252;6.802;2023-03-14T05:46:24;9.80;99.90
2577;DHT22;1298;51.252;6.802;2023-03-14T05:49:09;9.90;99.90
2577;DHT22;1298;51.252;6.802;2023-03-14T05:51:54;9.90;99.90
2577;DHT22;1298;51.252;6.802;2023-03-14T05:54:39;10.00;99.90
2577;DHT22;1298;51.252;6.802;2023-03-14T05:57:25;10.00;99.90
2577;DHT22;1298;51.252;6.802;2023-03-14T06:00:10;10.00;99.90
2577;DHT22;1298;51.252;6.802;2023-03-14T06:02:57;10.10;99.90
2577;DHT22;1298;51.252;6.802;2023-03-14T06:05:42;10.10;99.90
2577;DHT22;1298;51.252;6.802;2023-03-14T06:08:27;10.10;99.90
2577;DHT22;1298;51.252;6.802;2023-03-14T06:11:13;10.20;99.90
2577;DHT22;1298;51.252;6.802;2023-03-14T06:13:58;10.20;99.90
2577;DHT22;1298;51.252;6.802;2023-03-14T06:16:43;10.20;99.90
2577;DHT22;1298;51.252;6.802;2023-03-14T06:19:30;10.30;99.90
2577;DHT22;1298;51.252;6.802;2023-03-14T06:22:15;10.30;99.90
2577;DHT22;1298;51.252;6.802;2023-03-14T06:25:00;10.30;99.90
2577;DHT22;1298;51.252;6.802;2023-03-14T06:27:47;10.30;99.90
2577;DHT22;1298;51.252;6.802;2023-03-14T06:30:32;10.30;99.90
2577;DHT22;1298;51.252;6.802;2023-03-14T06:33:17;10.30;99.90
2577;DHT22;1298;51.252;6.802;2023-03-14T06:36:04;10.40;99.90
2577;DHT22;1298;51.252;6.802;2023-03-14T06:38:50;10.40;99.90
2577;DHT22;1298;51.252;6.802;2023-03-14T06:41:35;10.40;99.90
2577;DHT22;1298;51.252;6.802;2023-03-14T06:44:20;10.40;99.90
2577;DHT22;1298;51.252;6.802;2023-03-14T06:47:06;10.40;99.90
2577;DHT22;1298;51.252;6.802;2023-03-14T06:49:51;10.40;99.90
2577;DHT22;1298;51.252;6.802;2023-03-14T06:52:37;10.50;99.90
2577;DHT22;1298;51.252;6.802;2023-03-14T06:55:25;10.50;99.90
2577;DHT22;1298;51.252;6.802;2023-03-14T06:58:11;10.60;99.90
2577;DHT22;1298;51.252;6.802;2023-03-14T07:00:56;10.60;99.90
2577;DHT22;1298;51.252;6.802;2023-03-14T07:03:42;10.60;99.90
2577;DHT22;1298;51.252;6.802;2023-03-14T07:06:27;10.60;99.90
2577;DHT22;1298;51.252;6.802;2023-03-14T07:09:14;10.60;99.90
2577;DHT22;1298;51.252;6.802;2023-03-14T07:12:01;10.60;99.90
2577;DHT22;1298;51.252;6.802;2023-03-14T07:14:47;10.60;99.90
2577;DHT22;1298;51.252;6.802;2023-03-14T07:17:32;10.50;99.90
2577;DHT22;1298;51.252;6.802;2023-03-14T07:20:18;10.30;99.90
2577;DHT22;1298;51.252;6.802;2023-03-14T07:23:03;10.20;99.90
2577;DHT22;1298;51.252;6.802;2023-03-14T07:25:49;10.10;99.90
2577;DHT22;1298;51.252;6.802;2023-03-14T07:28:35;10.20;99.90
2577;DHT22;1298;51.252;6.802;2023-03-14T07:31:20;10.20;99.90
2577;DHT22;1298;51.252;6.802;2023-03-14T07:34:05;10.30;99.90
2577;DHT22;1298;51.252;6.802;2023-03-14T07:36:51;10.30;99.90
2577;DHT22;1298;51.252;6.802;2023-03-14T07:39:36;10.40;99.90
2577;DHT22;1298;51.252;6.802;2023-03-14T07:42:23;10.50;99.90
2577;DHT22;1298;51.252;6.802;2023-03-14T07:45:08;10.60;99.90
2577;DHT22;1298;51.252;6.802;2023-03-14T07:47:54;10.60;99.90
2577;DHT22;1298;51.252;6.802;2023-03-14T07:50:41;10.70;99.90
2577;DHT22;1298;51.252;6.802;2023-03-14T07:53:26;10.70;99.90
2577;DHT22;1298;51.252;6.802;2023-03-14T07:56:11;10.70;99.90
2577;DHT22;1298;51.252;6.802;2023-03-14T07:58:58;10.80;99.90
2577;DHT22;1298;51.252;6.802;2023-03-14T08:01:43;10.90;99.90
2577;DHT22;1298;51.252;6.802;2023-03-14T08:04:28;10.90;99.90
2577;DHT22;1298;51.252;6.802;2023-03-14T08:07:13;11.10;99.90
2577;DHT22;1298;51.252;6.802;2023-03-14T08:09:58;11.10;99.90
2577;DHT22;1298;51.252;6.802;2023-03-14T08:12:43;11.10;99.90
2577;DHT22;1298;51.252;6.802;2023-03-14T08:15:30;11.10;99.90
2577;DHT22;1298;51.252;6.802;2023-03-14T08:18:15;11.20;99.90
2577;DHT22;1298;51.252;6.802;2023-03-14T08:21:01;11.20;99.90
2577;DHT22;1298;51.252;6.802;2023-03-14T08:23:46;11.20;99.90
2577;DHT22;1298;51.252;6.802;2023-03-14T08:26:31;11.30;99.90
2577;DHT22;1298;51.252;6.802;2023-03-14T08:29:16;11.20;99.90
2577;DHT22;1298;51.252;6.802;2023-03-14T08:32:03;11.30;99.90
2577;DHT22;1298;51.252;6.802;2023-03-14T08:34:48;11.30;99.90
2577;DHT22;1298;51.252;6.802;2023-03-14T08:37:33;11.30;99.90
2577;DHT22;1298;51.252;6.802;2023-03-14T08:40:19;11.30;99.90
2577;DHT22;1298;51.252;6.802;2023-03-14T08:43:04;11.30;99.90
2577;DHT22;1298;51.252;6.802;2023-03-14T08:45:49;11.20;99.90
2577;DHT22;1298;51.252;6.802;2023-03-14T08:48:36;11.20;99.90
2577;DHT22;1298;51.252;6.802;2023-03-14T08:51:21;11.10;99.90
2577;DHT22;1298;51.252;6.802;2023-03-14T08:54:09;11.00;99.90
2577;DHT22;1298;51.252;6.802;2023-03-14T08:56:54;10.90;99.90
2577;DHT22;1298;51.252;6.802;2023-03-14T08:59:39;10.70;99.90
2577;DHT22;1298;51.252;6.802;2023-03-14T09:02:25;10.60;99.90
2577;DHT22;1298;51.252;6.802;2023-03-14T09:05:12;10.60;99.90
2577;DHT22;1298;51.252;6.802;2023-03-14T09:07:57;10.60;99.90
2577;DHT22;1298;51.252;6.802;2023-03-14T09:10:42;10.60;99.90
2577;DHT22;1298;51.252;6.802;2023-03-14T09:13:27;10.70;99.90
2577;DHT22;1298;51.252;6.802;2023-03-14T09:16:13;10.60;99.90
2577;DHT22;1298;51.252;6.802;2023-03-14T09:18:58;10.60;99.90
2577;DHT22;1298;51.252;6.802;2023-03-14T09:21:44;10.50;99.90
2577;DHT22;1298;51.252;6.802;2023-03-14T09:24:29;10.50;99.90
2577;DHT22;1298;51.252;6.802;2023-03-14T09:27:15;9.50;99.90
2577;DHT22;1298;51.252;6.802;2023-03-14T09:30:00;9.00;99.90
2577;DHT22;1298;51.252;6.802;2023-03-14T09:32:46;8.60;99.90
2577;DHT22;1298;51.252;6.802;2023-03-14T09:35:32;8.40;99.90
2577;DHT22;1298;51.252;6.802;2023-03-14T09:38:19;8.20;99.90
2577;DHT22;1298;51.252;6.802;2023-03-14T09:41:10;8.10;99.90
2577;DHT22;1298;51.252;6.802;2023-03-14T09:43:59;8.00;99.90
2577;DHT22;1298;51.252;6.802;2023-03-14T09:46:49;8.00;99.90
2577;DHT22;1298;51.252;6.802;2023-03-14T09:49:35;8.00;99.90
2577;DHT22;1298;51.252;6.802;2023-03-14T09:52:23;7.90;99.90
2577;DHT22;1298;51.252;6.802;2023-03-14T09:55:11;7.90;99.90
2577;DHT22;1298;51.252;6.802;2023-03-14T09:57:59;7.90;99.90
2577;DHT22;1298;51.252;6.802;2023-03-14T10:00:45;7.90;99.90
2577;DHT22;1298;51.252;6.802;2023-03-14T10:03:31;8.00;99.90
2577;DHT22;1298;51.252;6.802;2023-03-14T10:06:17;8.00;99.90
2577;DHT22;1298;51.252;6.802;2023-03-14T10:09:02;8.10;99.90
2577;DHT22;1298;51.252;6.802;2023-03-14T10:11:51;8.10;99.90
2577;DHT22;1298;51.252;6.802;2023-03-14T10:14:36;8.00;99.90
2577;DHT22;1298;51.252;6.802;2023-03-14T10:17:22;8.10;99.90
2577;DHT22;1298;51.252;6.802;2023-03-14T10:20:14;8.10;99.90
2577;DHT22;1298;51.252;6.802;2023-03-14T10:23:19;8.20;99.90
2577;DHT22;1298;51.252;6.802;2023-03-14T10:26:07;8.20;99.90
2577;DHT22;1298;51.252;6.802;2023-03-14T10:29:01;8.30;99.90
2577;DHT22;1298;51.252;6.802;2023-03-14T10:31:47;8.40;99.90
2577;DHT22;1298;51.252;6.802;2023-03-14T10:34:33;8.40;99.90
2577;DHT22;1298;51.252;6.802;2023-03-14T10:37:20;8.50;99.90
2577;DHT22;1298;51.252;6.802;2023-03-14T10:40:12;8.50;99.90
2577;DHT22;1298;51.252;6.802;2023-03-14T10:42:59;8.50;99.90
2577;DHT22;1298;51.252;6.802;2023-03-14T10:45:50;8.50;99.90
2577;DHT22;1298;51.252;6.802;2023-03-14T10:48:37;8.50;99.90
2577;DHT22;1298;51.252;6.802;2023-03-14T10:51:24;8.40;99.90
2577;DHT22;1298;51.252;6.802;2023-03-14T10:54:12;8.30;99.90
2577;DHT22;1298;51.252;6.802;2023-03-14T10:56:58;8.30;99.90
2577;DHT22;1298;51.252;6.802;2023-03-14T10:59:45;7.90;99.90
2577;DHT22;1298;51.252;6.802;2023-03-14T11:02:37;7.30;99.90
2577;DHT22;1298;51.252;6.802;2023-03-14T11:05:27;7.00;99.90
2577;DHT22;1298;51.252;6.802;2023-03-14T11:08:15;7.00;99.90
2577;DHT22;1298;51.252;6.802;2023-03-14T11:11:07;7.10;99.90
2577;DHT22;1298;51.252;6.802;2023-03-14T11:13:57;7.00;99.90
2577;DHT22;1298;51.252;6.802;2023-03-14T11:16:48;7.00;99.90
2577;DHT22;1298;51.252;6.802;2023-03-14T11:19:45;7.10;99.90
2577;DHT22;1298;51.252;6.802;2023-03-14T11:22:33;7.00;99.90
2577;DHT22;1298;51.252;6.802;2023-03-14T11:25:21;6.80;99.90
2577;DHT22;1298;51.252;6.802;2023-03-14T11:28:14;6.80;99.90
2577;DHT22;1298;51.252;6.802;2023-03-14T11:31:04;6.70;99.90
2577;DHT22;1298;51.252;6.802;2023-03-14T11:33:52;6.60;99.90
2577;DHT22;1298;51.252;6.802;2023-03-14T11:36:41;6.70;99.90
2577;DHT22;1298;51.252;6.802;2023-03-14T11:39:32;6.70;99.90
2577;DHT22;1298;51.252;6.802;2023-03-14T11:42:19;6.80;99.90
2577;DHT22;1298;51.252;6.802;2023-03-14T11:45:10;7.00;99.90
2577;DHT22;1298;51.252;6.802;2023-03-14T11:48:05;7.10;99.90
2577;DHT22;1298;51.252;6.802;2023-03-14T11:50:52;7.10;99.90
2577;DHT22;1298;51.252;6.802;2023-03-14T11:53:43;7.10;99.90
2577;DHT22;1298;51.252;6.802;2023-03-14T11:56:33;7.10;99.90
2577;DHT22;1298;51.252;6.802;2023-03-14T11:59:19;7.20;99.90
2577;DHT22;1298;51.252;6.802;2023-03-14T12:02:09;7.30;99.90
2577;DHT22;1298;51.252;6.802;2023-03-14T12:05:20;7.30;99.90
2577;DHT22;1298;51.252;6.802;2023-03-14T12:08:19;7.40;99.90
2577;DHT22;1298;51.252;6.802;2023-03-14T12:11:10;7.30;99.90
2577;DHT22;1298;51.252;6.802;2023-03-14T12:13:56;7.20;99.90
2577;DHT22;1298;51.252;6.802;2023-03-14T12:16:41;7.10;99.90
2577;DHT22;1298;51.252;6.802;2023-03-14T12:19:31;7.00;99.90
2577;DHT22;1298;51.252;6.802;2023-03-14T12:22:24;7.20;99.90
2577;DHT22;1298;51.252;6.802;2023-03-14T12:25:13;7.20;99.90
2577;DHT22;1298;51.252;6.802;2023-03-14T12:28:12;7.50;99.90
2577;DHT22;1298;51.252;6.802;2023-03-14T12:34:02;8.00;99.90
2577;DHT22;1298;51.252;6.802;2023-03-14T12:36:51;8.20;99.90
2577;DHT22;1298;51.252;6.802;2023-03-14T12:39:40;8.20;99.90
2577;DHT22;1298;51.252;6.802;2023-03-14T12:42:38;8.20;99.90
2577;DHT22;1298;51.252;6.802;2023-03-14T12:45:28;8.10;99.90
2577;DHT22;1298;51.252;6.802;2023-03-14T12:48:15;7.90;99.90
2577;DHT22;1298;51.252;6.802;2023-03-14T12:51:02;7.90;99.90
2577;DHT22;1298;51.252;6.802;2023-03-14T12:53:58;7.90;99.90
2577;DHT22;1298;51.252;6.802;2023-03-14T12:56:51;7.70;99.90
2577;DHT22;1298;51.252;6.802;2023-03-14T12:59:43;7.30;99.90
2577;DHT22;1298;51.252;6.802;2023-03-14T13:02:37;6.70;99.90
2577;DHT22;1298;51.252;6.802;2023-03-14T13:05:24;6.30;99.90
2577;DHT22;1298;51.252;6.802;2023-03-14T13:08:10;6.30;99.90
2577;DHT22;1298;51.252;6.802;2023-03-14T13:10:55;6.30;99.90
2577;DHT22;1298;51.252;6.802;2023-03-14T13:13:41;6.50;99.90
2577;DHT22;1298;51.252;6.802;2023-03-14T13:16:35;6.60;99.90
2577;DHT22;1298;51.252;6.802;2023-03-14T13:19:23;6.70;99.90
2577;DHT22;1298;51.252;6.802;2023-03-14T13:22:15;6.70;99.90
2577;DHT22;1298;51.252;6.802;2023-03-14T13:25:02;6.90;99.90
2577;DHT22;1298;51.252;6.802;2023-03-14T13:27:48;7.10;99.90
2577;DHT22;1298;51.252;6.802;2023-03-14T13:30:38;7.50;99.90
2577;DHT22;1298;51.252;6.802;2023-03-14T13:33:24;7.60;99.90
2577;DHT22;1298;51.252;6.802;2023-03-14T13:36:10;7.60;99.90
2577;DHT22;1298;51.252;6.802;2023-03-14T13:38:56;7.50;99.90
2577;DHT22;1298;51.252;6.802;2023-03-14T13:41:42;7.60;99.90
2577;DHT22;1298;51.252;6.802;2023-03-14T13:44:29;7.30;99.90
2577;DHT22;1298;51.252;6.802;2023-03-14T13:47:15;6.80;99.90
2577;DHT22;1298;51.252;6.802;2023-03-14T13:50:01;6.40;99.90
2577;DHT22;1298;51.252;6.802;2023-03-14T13:52:47;6.50;99.90
2577;DHT22;1298;51.252;6.802;2023-03-14T13:55:39;6.50;99.90
2577;DHT22;1298;51.252;6.802;2023-03-14T13:58:25;6.70;99.90
2577;DHT22;1298;51.252;6.802;2023-03-14T14:01:13;7.10;99.90
2577;DHT22;1298;51.252;6.802;2023-03-14T14:04:02;7.60;99.90
2577;DHT22;1298;51.252;6.802;2023-03-14T14:06:52;8.20;99.90
2577;DHT22;1298;51.252;6.802;2023-03-14T14:09:39;9.40;99.90
2577;DHT22;1298;51.252;6.802;2023-03-14T14:12:27;10.40;99.90
2577;DHT22;1298;51.252;6.802;2023-03-14T14:15:14;11.90;99.90
2577;DHT22;1298;51.252;6.802;2023-03-14T14:18:03;13.30;99.90
2577;DHT22;1298;51.252;6.802;2023-03-14T14:20:49;13.40;99.90
2577;DHT22;1298;51.252;6.802;2023-03-14T14:23:34;12.20;99.90
2577;DHT22;1298;51.252;6.802;2023-03-14T14:26:21;10.80;99.90
2577;DHT22;1298;51.252;6.802;2023-03-14T14:29:20;9.90;99.90
2577;DHT22;1298;51.252;6.802;2023-03-14T14:32:10;9.20;99.90
2577;DHT22;1298;51.252;6.802;2023-03-14T14:34:57;9.00;99.90
2577;DHT22;1298;51.252;6.802;2023-03-14T14:37:43;9.00;99.90
2577;DHT22;1298;51.252;6.802;2023-03-14T14:40:30;8.90;99.90
2577;DHT22;1298;51.252;6.802;2023-03-14T14:43:18;8.70;99.90
2577;DHT22;1298;51.252;6.802;2023-03-14T14:46:05;8.80;99.90
2577;DHT22;1298;51.252;6.802;2023-03-14T14:48:54;8.70;99.90
2577;DHT22;1298;51.252;6.802;2023-03-14T14:51:41;8.70;99.90
2577;DHT22;1298;51.252;6.802;2023-03-14T14:54:32;8.70;99.90
2577;DHT22;1298;51.252;6.802;2023-03-14T14:57:18;8.70;99.90
2577;DHT22;1298;51.252;6.802;2023-03-14T15:00:06;8.80;99.90
2577;DHT22;1298;51.252;6.802;2023-03-14T15:02:55;8.80;99.90
2577;DHT22;1298;51.252;6.802;2023-03-14T15:05:43;8.90;99.90
2577;DHT22;1298;51.252;6.802;2023-03-14T15:08:30;8.70;99.90
2577;DHT22;1298;51.252;6.802;2023-03-14T15:11:15;8.80;99.90
2577;DHT22;1298;51.252;6.802;2023-03-14T15:14:01;9.10;99.90
2577;DHT22;1298;51.252;6.802;2023-03-14T15:16:48;9.60;99.90
2577;DHT22;1298;51.252;6.802;2023-03-14T15:19:33;9.90;99.90
2577;DHT22;1298;51.252;6.802;2023-03-14T15:22:18;10.00;99.90
2577;DHT22;1298;51.252;6.802;2023-03-14T15:25:04;9.60;99.90
2577;DHT22;1298;51.252;6.802;2023-03-14T15:27:49;9.20;99.90
2577;DHT22;1298;51.252;6.802;2023-03-14T15:30:34;9.20;99.90
2577;DHT22;1298;51.252;6.802;2023-03-14T15:33:21;9.00;99.90
2577;DHT22;1298;51.252;6.802;2023-03-14T15:36:10;8.70;99.90
2577;DHT22;1298;51.252;6.802;2023-03-14T15:38:59;8.50;99.90
2577;DHT22;1298;51.252;6.802;2023-03-14T15:41:45;8.40;99.90
2577;DHT22;1298;51.252;6.802;2023-03-14T15:44:30;8.40;99.90
2577;DHT22;1298;51.252;6.802;2023-03-14T15:47:15;8.30;99.90
2577;DHT22;1298;51.252;6.802;2023-03-14T15:50:02;8.20;99.90
2577;DHT22;1298;51.252;6.802;2023-03-14T15:52:47;8.20;99.90
2577;DHT22;1298;51.252;6.802;2023-03-14T15:55:32;8.10;99.90
2577;DHT22;1298;51.252;6.802;2023-03-14T15:58:19;8.00;99.90
2577;DHT22;1298;51.252;6.802;2023-03-14T16:01:04;8.00;99.90
2577;DHT22;1298;51.252;6.802;2023-03-14T16:03:52;7.90;99.90
2577;DHT22;1298;51.252;6.802;2023-03-14T16:06:38;7.90;99.90
2577;DHT22;1298;51.252;6.802;2023-03-14T16:09:24;7.80;99.90
2577;DHT22;1298;51.252;6.802;2023-03-14T16:12:10;7.80;99.90
2577;DHT22;1298;51.252;6.802;2023-03-14T16:14:55;7.70;99.90
2577;DHT22;1298;51.252;6.802;2023-03-14T16:17:41;7.60;99.90
2577;DHT22;1298;51.252;6.802;2023-03-14T16:20:27;7.60;99.90
2577;DHT22;1298;51.252;6.802;2023-03-14T16:23:13;7.60;99.90
2577;DHT22;1298;51.252;6.802;2023-03-14T16:26:04;7.50;99.90
2577;DHT22;1298;51.252;6.802;2023-03-14T16:28:50;7.50;99.90
2577;DHT22;1298;51.252;6.802;2023-03-14T16:31:37;7.60;99.90
2577;DHT22;1298;51.252;6.802;2023-03-14T16:34:25;7.50;99.90
2577;DHT22;1298;51.252;6.802;2023-03-14T16:37:11;7.50;99.90
2577;DHT22;1298;51.252;6.802;2023-03-14T16:39:57;7.50;99.90
2577;DHT22;1298;51.252;6.802;2023-03-14T16:42:42;7.40;99.90
2577;DHT22;1298;51.252;6.802;2023-03-14T16:45:27;7.40;99.90
2577;DHT22;1298;51.252;6.802;2023-03-14T16:48:12;7.30;99.90
2577;DHT22;1298;51.252;6.802;2023-03-14T16:50:57;7.30;99.90
2577;DHT22;1298;51.252;6.802;2023-03-14T16:53:43;7.20;99.90
2577;DHT22;1298;51.252;6.802;2023-03-14T16:56:29;7.20;99.90
2577;DHT22;1298;51.252;6.802;2023-03-14T16:59:15;7.10;99.90
2577;DHT22;1298;51.252;6.802;2023-03-14T17:02:00;7.10;99.90
2577;DHT22;1298;51.252;6.802;2023-03-14T17:04:45;7.00;99.90
2577;DHT22;1298;51.252;6.802;2023-03-14T17:07:30;7.00;99.90
2577;DHT22;1298;51.252;6.802;2023-03-14T17:10:15;7.00;99.90
2577;DHT22;1298;51.252;6.802;2023-03-14T17:13:02;6.90;99.90
2577;DHT22;1298;51.252;6.802;2023-03-14T17:15:50;6.90;99.90
2577;DHT22;1298;51.252;6.802;2023-03-14T17:18:36;6.90;99.90
2577;DHT22;1298;51.252;6.802;2023-03-14T17:21:22;6.90;99.90
2577;DHT22;1298;51.252;6.802;2023-03-14T17:24:07;6.80;99.90
2577;DHT22;1298;51.252;6.802;2023-03-14T17:26:52;6.80;99.90
2577;DHT22;1298;51.252;6.802;2023-03-14T17:29:39;6.80;99.90
2577;DHT22;1298;51.252;6.802;2023-03-14T17:32:25;6.80;99.90
2577;DHT22;1298;51.252;6.802;2023-03-14T17:35:10;6.80;99.90
2577;DHT22;1298;51.252;6.802;2023-03-14T17:37:55;6.70;99.90
2577;DHT22;1298;51.252;6.802;2023-03-14T17:40:40;6.70;99.90
2577;DHT22;1298;51.252;6.802;2023-03-14T17:43:30;6.70;99.90
2577;DHT22;1298;51.252;6.802;2023-03-14T17:46:18;6.70;99.90
2577;DHT22;1298;51.252;6.802;2023-03-14T17:49:03;6.60;99.90
2577;DHT22;1298;51.252;6.802;2023-03-14T17:51:48;6.60;99.90
2577;DHT22;1298;51.252;6.802;2023-03-14T17:54:33;6.50;99.90
2577;DHT22;1298;51.252;6.802;2023-03-14T17:57:18;6.40;99.90
2577;DHT22;1298;51.252;6.802;2023-03-14T18:00:04;6.40;99.90
2577;DHT22;1298;51.252;6.802;2023-03-14T18:02:51;6.40;99.90
2577;DHT22;1298;51.252;6.802;2023-03-14T18:05:37;6.40;99.90
2577;DHT22;1298;51.252;6.802;2023-03-14T18:08:22;6.30;99.90
2577;DHT22;1298;51.252;6.802;2023-03-14T18:11:07;6.30;99.90
2577;DHT22;1298;51.252;6.802;2023-03-14T18:13:53;6.20;99.90
2577;DHT22;1298;51.252;6.802;2023-03-14T18:16:38;6.20;99.90
2577;DHT22;1298;51.252;6.802;2023-03-14T18:19:25;6.20;99.90
2577;DHT22;1298;51.252;6.802;2023-03-14T18:22:11;6.10;99.90
2577;DHT22;1298;51.252;6.802;2023-03-14T18:24:57;6.10;99.90